Sharon, Tennessee
Current Conditions -  °F | °C
As of 9:35 PM on Saturday 24 Jan 2015 (Local Time) from KUCY Reporting Station
Clear Clear  
Wind Chill: 31°   Ceiling: Unl
Heat Index: 36°   Visibility: 10mi
Dew Point: 30°   Wind: 6mph
Humidity: 81%   Direction: 190°S
Pressure: 29.86"   Gusts: NA
Location:  36.23°N, 88.82°W
Report Text: KUCY 250335Z AUTO 19005KT 10SM CLR 02/M01 A2986 RMK
Loading
Personal Weather Stations






























Interactive Weather Map New forecast layout! Learn more

10-Day Weather Forecast

Advertisements
Track Severe Weather on mobile